KMAF/MAF METAR and TAF weather

Enter ICAO airport designator
Station Type Date Time Source
KMAF METAR 2022/01/26 20:53 UTC NOAA

KMAF 262053Z 34005KT 8SM OVC012 M02/M05 A3022 RMK AO2 SLP240 I1000 I3000 T10171050 56020


Station Type Date Time Source
KMAF Decoded METAR 2022/01/26 20:53 UTC NOAA

MIDLAND INTERNATIONAL AIRPORT , TX, United States (KMAF) 31-56N 102-12W 872M
Jan 26, 2022 - 03:53 PM EST / 2022.01.26 2053 UTC
Wind: from the NNW (340 degrees) at 6 MPH (5 KT):0
Visibility: 8 mile(s):0
Sky conditions: overcast
Temperature: 28.9 F (-1.7 C)
Windchill: 23 F (-5 C):1
Dew Point: 23.0 F (-5.0 C)
Relative Humidity: 78%
Pressure (altimeter): 30.22 in. Hg (1023 hPa)
Pressure tendency: 0.06 inches (2.0 hPa) lower than three hours ago
ob: KMAF 262053Z 34005KT 8SM OVC012 M02/M05 A3022 RMK AO2 SLP240 I1000 I3000 T10171050 56020
cycle: 21

Station Type Date Time Source
KMAF TAF 2022/01/26 19:59 UTC NOAA

TAF
AMD KMAF 261859Z 2619/2718 05011KT P6SM OVC009
FM262100 10006KT P6SM OVC010
FM270100 18005KT P6SM OVC015
FM270900 21006KT P6SM OVC010

Example: see airport list